KLM9373 LKPR-EDDM
Flight info
| Callsign | KLM9373 |
|---|---|
| Flight time | N/A |
| Altitude | 24000 |
| Route | DOBEN DCT NIRGO T108 LANDU LANDU2B |
| Aircraft | A20N/M-SDE2E3FGHIRWXY/LB1 |
Departure
| Time | 2026-05-07 16:37 |
|---|---|
| Airport | Václav Havel Airport Prague (LKPR) |
Arrival
| Time | N/A |
|---|---|
| Airport | Munich Airport (EDDM) |
| Time | Latitude | Longitude | Altitude | Speed | Heading |
|---|---|---|---|---|---|
| 2026-05-07 15:37 | 50.10735 | 14.26296 | 1173 ft | 0 kts | 222° |
| 2026-05-07 16:20 | 50.10744 | 14.26308 | 1178 ft | 4 kts | 218° |
| 2026-05-07 16:21 | 50.10766 | 14.26332 | 1172 ft | 4 kts | 220° |
| 2026-05-07 16:21 | 50.10775 | 14.26346 | 1172 ft | 1 kts | 304° |
| 2026-05-07 16:21 | 50.10775 | 14.26347 | 1172 ft | 1 kts | 304° |
| 2026-05-07 16:30 | 50.10782 | 14.26332 | 1174 ft | 0 kts | 304° |
| 2026-05-07 16:31 | 50.10804 | 14.26281 | 1172 ft | 11 kts | 304° |
| 2026-05-07 16:31 | 50.10811 | 14.26266 | 1172 ft | 12 kts | 304° |
| 2026-05-07 16:31 | 50.10818 | 14.26250 | 1170 ft | 17 kts | 304° |
| 2026-05-07 16:32 | 50.10828 | 14.26102 | 1173 ft | 16 kts | 239° |
| 2026-05-07 16:32 | 50.10778 | 14.26053 | 1172 ft | 15 kts | 211° |
| 2026-05-07 16:32 | 50.10679 | 14.25944 | 1178 ft | 19 kts | 216° |
| 2026-05-07 16:32 | 50.10607 | 14.25869 | 1184 ft | 10 kts | 212° |
| 2026-05-07 16:33 | 50.10534 | 14.25874 | 1185 ft | 12 kts | 130° |
| 2026-05-07 16:33 | 50.10456 | 14.26064 | 1191 ft | 25 kts | 127° |
| 2026-05-07 16:33 | 50.10396 | 14.26194 | 1192 ft | 30 kts | 127° |
| 2026-05-07 16:33 | 50.10210 | 14.26567 | 1200 ft | 47 kts | 129° |
| 2026-05-07 16:34 | 50.10026 | 14.26952 | 1209 ft | 39 kts | 129° |
| 2026-05-07 16:34 | 50.09898 | 14.27221 | 1211 ft | 41 kts | 126° |
| 2026-05-07 16:34 | 50.09668 | 14.27589 | 1217 ft | 51 kts | 137° |
| 2026-05-07 16:34 | 50.09420 | 14.27981 | 1232 ft | 47 kts | 136° |
| 2026-05-07 16:35 | 50.09223 | 14.28265 | 1236 ft | 30 kts | 145° |
| 2026-05-07 16:35 | 50.09130 | 14.28246 | 1245 ft | 16 kts | 232° |
| 2026-05-07 16:35 | 50.09122 | 14.28230 | 1241 ft | 0 kts | 232° |
| 2026-05-07 16:36 | 50.09123 | 14.28231 | 1242 ft | 0 kts | 232° |
| 2026-05-07 16:36 | 50.09097 | 14.28086 | 1236 ft | 35 kts | 276° |
| 2026-05-07 16:36 | 50.09320 | 14.27597 | 1230 ft | 107 kts | 308° |
| 2026-05-07 16:36 | 50.09957 | 14.26276 | 1318 ft | 188 kts | 305° |
| 2026-05-07 16:37 | 50.10892 | 14.24446 | 2033 ft | 241 kts | 307° |
| 2026-05-07 16:37 | 50.12002 | 14.22147 | 2746 ft | 289 kts | 305° |
| 2026-05-07 16:37 | 50.13279 | 14.19449 | 3401 ft | 327 kts | 305° |
| 2026-05-07 16:37 | 50.14694 | 14.16468 | 4142 ft | 354 kts | 305° |
| 2026-05-07 16:38 | 50.16016 | 14.13221 | 5539 ft | 357 kts | 293° |
| 2026-05-07 16:38 | 50.16664 | 14.09458 | 6776 ft | 366 kts | 275° |
| 2026-05-07 16:38 | 50.16504 | 14.05483 | 8028 ft | 371 kts | 257° |
| 2026-05-07 16:38 | 50.15559 | 14.01724 | 9307 ft | 378 kts | 240° |
| 2026-05-07 16:39 | 50.14034 | 13.99188 | 10306 ft | 386 kts | 226° |
| 2026-05-07 16:39 | 50.11904 | 13.96622 | 11445 ft | 386 kts | 210° |
| 2026-05-07 16:39 | 50.09401 | 13.95127 | 12629 ft | 388 kts | 193° |
| 2026-05-07 16:39 | 50.06713 | 13.94808 | 13869 ft | 390 kts | 177° |
| 2026-05-07 16:40 | 50.04063 | 13.95702 | 15000 ft | 392 kts | 161° |
| 2026-05-07 16:40 | 50.01674 | 13.97740 | 16181 ft | 394 kts | 145° |
| 2026-05-07 16:40 | 49.99740 | 14.00765 | 17415 ft | 397 kts | 129° |
| 2026-05-07 16:40 | 49.98420 | 14.04530 | 18620 ft | 399 kts | 112° |
| 2026-05-07 16:41 | 49.97826 | 14.08736 | 19778 ft | 400 kts | 96° |
| 2026-05-07 16:41 | 49.98011 | 14.13035 | 20969 ft | 399 kts | 79° |
| 2026-05-07 16:41 | 49.98954 | 14.17062 | 22191 ft | 397 kts | 62° |
| 2026-05-07 16:41 | 50.00412 | 14.20674 | 23459 ft | 391 kts | 63° |
| 2026-05-07 16:42 | 50.01328 | 14.24582 | 24576 ft | 380 kts | 82° |
| 2026-05-07 16:42 | 50.01410 | 14.28605 | 25676 ft | 366 kts | 102° |
| 2026-05-07 16:42 | 50.00665 | 14.32258 | 26848 ft | 347 kts | 123° |
| 2026-05-07 16:42 | 49.99219 | 14.35071 | 28066 ft | 324 kts | 145° |
| 2026-05-07 16:43 | 49.97331 | 14.36681 | 29334 ft | 298 kts | 168° |
| 2026-05-07 16:43 | 49.95354 | 14.36931 | 30419 ft | 279 kts | 191° |
| 2026-05-07 16:43 | 49.93572 | 14.35900 | 31021 ft | 275 kts | 215° |
| 2026-05-07 16:43 | 49.92229 | 14.33741 | 31331 ft | 287 kts | 236° |
| 2026-05-07 16:44 | 49.91284 | 14.30895 | 31367 ft | 308 kts | 244° |
| 2026-05-07 16:44 | 49.90503 | 14.27709 | 31281 ft | 333 kts | 249° |
| 2026-05-07 16:44 | 49.89803 | 14.24099 | 31190 ft | 357 kts | 252° |
| 2026-05-07 16:44 | 49.89231 | 14.20278 | 31117 ft | 380 kts | 256° |
| 2026-05-07 16:45 | 49.88789 | 14.16129 | 31061 ft | 401 kts | 261° |
| 2026-05-07 16:45 | 49.88528 | 14.11722 | 31040 ft | 420 kts | 265° |
| 2026-05-07 16:45 | 49.88492 | 14.07098 | 31026 ft | 438 kts | 270° |
| 2026-05-07 16:45 | 49.88456 | 14.02298 | 30999 ft | 453 kts | 266° |
| 2026-05-07 16:46 | 49.88319 | 13.97347 | 30969 ft | 465 kts | 266° |
| 2026-05-07 16:46 | 49.87240 | 13.87424 | 31256 ft | 466 kts | 248° |
| 2026-05-07 16:46 | 49.85783 | 13.82972 | 31727 ft | 462 kts | 236° |
| 2026-05-07 16:47 | 49.83790 | 13.79096 | 32088 ft | 461 kts | 226° |
| 2026-05-07 16:47 | 49.81451 | 13.75691 | 32310 ft | 462 kts | 221° |
| 2026-05-07 16:47 | 49.79020 | 13.72477 | 32824 ft | 458 kts | 220° |
| 2026-05-07 16:47 | 49.76599 | 13.69271 | 33160 ft | 458 kts | 221° |
| 2026-05-07 16:48 | 49.74200 | 13.66024 | 33532 ft | 458 kts | 221° |
| 2026-05-07 16:48 | 49.71825 | 13.62750 | 33869 ft | 458 kts | 222° |
| 2026-05-07 16:48 | 49.69457 | 13.59452 | 34140 ft | 460 kts | 223° |
| 2026-05-07 16:48 | 49.67088 | 13.56139 | 34432 ft | 459 kts | 223° |
| 2026-05-07 16:49 | 49.64728 | 13.52836 | 34736 ft | 458 kts | 223° |
| 2026-05-07 16:49 | 49.62362 | 13.49531 | 35010 ft | 458 kts | 223° |
| 2026-05-07 16:49 | 49.60000 | 13.46237 | 35306 ft | 457 kts | 223° |
| 2026-05-07 16:49 | 49.57643 | 13.42956 | 35577 ft | 457 kts | 223° |
| 2026-05-07 16:50 | 49.55283 | 13.39675 | 35855 ft | 457 kts | 223° |
| 2026-05-07 16:50 | 49.52921 | 13.36395 | 36133 ft | 457 kts | 222° |
| 2026-05-07 16:50 | 49.50557 | 13.33119 | 36392 ft | 457 kts | 222° |
| 2026-05-07 16:50 | 49.48196 | 13.29850 | 36655 ft | 457 kts | 222° |
| 2026-05-07 16:51 | 49.45836 | 13.26586 | 36918 ft | 456 kts | 222° |
| 2026-05-07 16:51 | 49.43477 | 13.23330 | 37194 ft | 456 kts | 222° |
| 2026-05-07 16:51 | 49.41112 | 13.20071 | 37405 ft | 456 kts | 222° |
| 2026-05-07 16:51 | 49.38754 | 13.16825 | 37662 ft | 456 kts | 222° |
| 2026-05-07 16:52 | 49.36390 | 13.13573 | 37900 ft | 456 kts | 222° |
| 2026-05-07 16:52 | 49.34031 | 13.10333 | 38141 ft | 456 kts | 222° |
| 2026-05-07 16:52 | 49.31667 | 13.07091 | 38380 ft | 456 kts | 222° |
| 2026-05-07 16:52 | 49.29333 | 13.03895 | 38620 ft | 456 kts | 222° |
| 2026-05-07 16:53 | 49.26970 | 13.00662 | 38816 ft | 455 kts | 222° |
| 2026-05-07 16:53 | 49.24609 | 12.97437 | 39017 ft | 455 kts | 222° |
| 2026-05-07 16:53 | 49.22213 | 12.94170 | 39208 ft | 454 kts | 222° |
| 2026-05-07 16:53 | 49.19883 | 12.90997 | 39322 ft | 456 kts | 222° |
| 2026-05-07 16:54 | 49.17495 | 12.87751 | 39065 ft | 466 kts | 222° |
| 2026-05-07 16:54 | 49.15005 | 12.84476 | 38184 ft | 475 kts | 220° |
| 2026-05-07 16:54 | 49.12441 | 12.81289 | 37060 ft | 476 kts | 219° |
| 2026-05-07 16:54 | 49.09835 | 12.78183 | 35804 ft | 475 kts | 220° |
| 2026-05-07 16:55 | 49.07310 | 12.74937 | 34995 ft | 473 kts | 221° |
| 2026-05-07 16:55 | 49.04876 | 12.71738 | 34869 ft | 467 kts | 221° |
| 2026-05-07 16:56 | 48.99080 | 12.63937 | 33780 ft | 444 kts | 226° |
| 2026-05-07 16:57 | 48.96931 | 12.60622 | 33128 ft | 436 kts | 226° |
| 2026-05-07 16:57 | 48.94780 | 12.57378 | 32179 ft | 435 kts | 225° |
| 2026-05-07 16:57 | 48.92579 | 12.54217 | 31131 ft | 436 kts | 224° |
| 2026-05-07 16:57 | 48.90332 | 12.51115 | 30058 ft | 437 kts | 224° |
| 2026-05-07 16:58 | 48.88918 | 12.49200 | 29216 ft | 438 kts | 223° |
| 2026-05-07 16:58 | 48.88411 | 12.48518 | 28939 ft | 439 kts | 223° |
| 2026-05-07 16:58 | 48.86119 | 12.45448 | 27576 ft | 441 kts | 223° |
| 2026-05-07 16:59 | 48.83812 | 12.42372 | 26122 ft | 443 kts | 223° |
| 2026-05-07 16:59 | 48.81477 | 12.39263 | 24635 ft | 448 kts | 223° |
| 2026-05-07 16:59 | 48.79128 | 12.36140 | 23258 ft | 449 kts | 223° |
| 2026-05-07 16:59 | 48.76798 | 12.33046 | 22042 ft | 442 kts | 223° |
| 2026-05-07 17:00 | 48.74504 | 12.30003 | 20900 ft | 434 kts | 223° |
| 2026-05-07 17:00 | 48.72254 | 12.27020 | 19800 ft | 427 kts | 223° |
| 2026-05-07 17:00 | 48.70010 | 12.24049 | 18537 ft | 429 kts | 224° |
| 2026-05-07 17:00 | 48.67757 | 12.21066 | 17149 ft | 429 kts | 223° |
| 2026-05-07 17:01 | 48.65526 | 12.18115 | 16010 ft | 422 kts | 223° |
| 2026-05-07 17:01 | 48.63356 | 12.15251 | 14934 ft | 406 kts | 223° |
| 2026-05-07 17:01 | 48.62204 | 12.13733 | 14265 ft | 397 kts | 223° |
| 2026-05-07 17:02 | 48.61812 | 12.13217 | 14021 ft | 395 kts | 223° |
| 2026-05-07 17:02 | 48.59763 | 12.10519 | 12510 ft | 387 kts | 223° |
| 2026-05-07 17:03 | 48.57753 | 12.07872 | 11023 ft | 380 kts | 223° |
| 2026-05-07 17:03 | 48.55778 | 12.05274 | 9553 ft | 374 kts | 223° |
| 2026-05-07 17:03 | 48.55258 | 12.04591 | 9133 ft | 372 kts | 223° |
| 2026-05-07 17:04 | 48.53980 | 12.02913 | 8128 ft | 369 kts | 223° |
| 2026-05-07 17:05 | 48.52060 | 12.00395 | 6832 ft | 361 kts | 223° |
| 2026-05-07 17:05 | 48.50211 | 11.97978 | 6046 ft | 342 kts | 223° |
| 2026-05-07 17:05 | 48.48472 | 11.95705 | 5568 ft | 319 kts | 223° |
| 2026-05-07 17:05 | 48.46855 | 11.93593 | 5296 ft | 296 kts | 223° |
| 2026-05-07 17:06 | 48.45361 | 11.91640 | 5120 ft | 274 kts | 223° |
| 2026-05-07 17:06 | 48.43980 | 11.89835 | 5053 ft | 252 kts | 223° |
| 2026-05-07 17:06 | 48.42711 | 11.88179 | 5049 ft | 231 kts | 224° |